Time,TemperatureF,DewpointF,PressureIn,WindDirection,WindDirectionDegrees,WindSpeedMPH,WindSpeedGustMPH,Humidity,HourlyPrecipIn,Conditions,Clouds,dailyrainin,SoftwareType,DateUTC
2013-03-12 00:00:00,51.3,44.6,30.08,WNW,293,0.4,0.4,78,0.00,,,0.00,WUHU216HW,2013-03-12 07:00:00,
2013-03-12 00:05:00,51.3,44.6,30.08,WNW,293,0.0,0.4,78,0.00,,,0.00,WUHU216HW,2013-03-12 07:05:00,
2013-03-12 00:10:00,51.3,44.6,30.07,WNW,293,0.0,0.4,78,0.00,,,0.00,WUHU216HW,2013-03-12 07:10:00,
2013-03-12 00:15:00,51.5,44.8,30.07,NNE,23,0.2,0.2,78,0.00,,,0.00,WUHU216HW,2013-03-12 07:15:00,
2013-03-12 00:20:00,51.5,44.8,30.07,NNE,23,0.0,0.4,78,0.00,,,0.00,WUHU216HW,2013-03-12 07:20:00,
2013-03-12 00:25:00,51.8,45.2,30.07,NNE,23,0.0,0.4,78,0.00,,,0.00,WUHU216HW,2013-03-12 07:25:00,
2013-03-12 00:30:00,52.2,45.2,30.07,NNE,23,0.2,0.2,77,0.00,,,0.00,WUHU216HW,2013-03-12 07:30:00,
2013-03-12 00:35:00,52.2,45.2,30.06,NNE,23,0.0,0.4,77,0.00,,,0.00,WUHU216HW,2013-03-12 07:35:00,
2013-03-12 00:40:00,52.2,45.2,30.06,NNE,23,0.0,0.9,77,0.00,,,0.00,WUHU216HW,2013-03-12 07:40:00,
2013-03-12 00:45:00,52.4,45.1,30.06,NNE,23,0.0,0.9,76,0.00,,,0.00,WUHU216HW,2013-03-12 07:45:00,
2013-03-12 00:50:00,52.6,45.2,30.06,NNE,23,0.0,0.4,76,0.00,,,0.00,WUHU216HW,2013-03-12 07:50:00,
2013-03-12 00:55:00,52.7,45.4,30.06,NE,45,0.9,0.9,76,0.00,,,0.00,WUHU216HW,2013-03-12 07:55:00,
2013-03-12 01:00:00,52.7,45.4,30.06,NE,45,0.0,0.9,76,0.00,,,0.00,WUHU216HW,2013-03-12 08:00:00,
2013-03-12 01:05:00,52.9,45.5,30.06,NE,45,0.0,0.9,76,0.00,,,0.00,WUHU216HW,2013-03-12 08:05:00,
2013-03-12 01:10:00,52.7,45.4,30.07,NE,45,0.4,0.7,76,0.00,,,0.00,WUHU216HW,2013-03-12 08:10:00,
2013-03-12 01:15:00,52.4,45.4,30.07,NE,45,0.4,0.7,77,0.00,,,0.00,WUHU216HW,2013-03-12 08:15:00,
2013-03-12 01:20:00,52.2,44.9,30.06,NE,45,0.4,0.7,76,0.00,,,0.00,WUHU216HW,2013-03-12 08:20:00,
2013-03-12 01:25:00,52.0,44.7,30.07,NE,45,0.0,0.4,76,0.00,,,0.00,WUHU216HW,2013-03-12 08:25:00,
2013-03-12 01:30:00,51.7,44.4,30.07,NE,45,0.2,0.4,76,0.00,,,0.00,WUHU216HW,2013-03-12 08:30:00,
2013-03-12 01:35:00,51.5,44.2,30.07,NE,45,0.0,0.2,76,0.00,,,0.00,WUHU216HW,2013-03-12 08:35:00,
2013-03-12 01:40:00,51.3,44.0,30.07,NE,45,0.0,0.2,76,0.00,,,0.00,WUHU216HW,2013-03-12 08:40:00,
2013-03-12 01:45:00,50.9,43.7,30.07,NE,45,0.2,0.2,76,0.00,,,0.00,WUHU216HW,2013-03-12 08:45:00,
2013-03-12 01:50:00,50.8,43.8,30.07,NE,45,0.2,1.1,77,0.00,,,0.00,WUHU216HW,2013-03-12 08:50:00,
2013-03-12 01:55:00,50.4,43.7,30.07,East,90,1.6,1.6,78,0.00,,,0.00,WUHU216HW,2013-03-12 08:55:00,
2013-03-12 02:00:00,50.2,43.9,30.07,ENE,68,0.9,1.6,79,0.00,,,0.00,WUHU216HW,2013-03-12 09:00:00,
2013-03-12 02:05:00,50.4,44.1,30.07,NE,45,0.7,1.6,79,0.00,,,0.00,WUHU216HW,2013-03-12 09:05:00,
2013-03-12 02:10:00,50.4,44.1,30.07,NE,45,0.2,1.3,79,0.00,,,0.00,WUHU216HW,2013-03-12 09:10:00,
2013-03-12 02:15:00,50.6,44.3,30.07,NNE,23,1.6,1.6,79,0.00,,,0.00,WUHU216HW,2013-03-12 09:15:00,
2013-03-12 02:20:00,50.6,44.3,30.07,NE,45,0.4,1.6,79,0.00,,,0.00,WUHU216HW,2013-03-12 09:20:00,
2013-03-12 02:25:00,50.4,44.1,30.08,NE,45,0.0,1.6,79,0.00,,,0.00,WUHU216HW,2013-03-12 09:25:00,
2013-03-12 02:30:00,50.4,43.7,30.08,NE,45,0.0,0.7,78,0.00,,,0.00,WUHU216HW,2013-03-12 09:30:00,
2013-03-12 02:35:00,50.2,43.6,30.08,NE,45,0.0,0.0,78,0.00,,,0.00,WUHU216HW,2013-03-12 09:35:00,
2013-03-12 02:40:00,50.0,43.4,30.08,NE,45,0.0,0.0,78,0.00,,,0.00,WUHU216HW,2013-03-12 09:40:00,
2013-03-12 02:45:00,50.0,43.7,30.07,NE,45,0.2,0.4,79,0.00,,,0.00,WUHU216HW,2013-03-12 09:45:00,
2013-03-12 02:50:00,49.9,43.6,30.08,NE,45,0.4,0.4,79,0.00,,,0.00,WUHU216HW,2013-03-12 09:50:00,
2013-03-12 02:55:00,49.9,43.6,30.07,NE,45,0.4,0.4,79,0.00,,,0.00,WUHU216HW,2013-03-12 09:55:00,
2013-03-12 03:00:00,49.7,43.4,30.07,NNE,23,0.2,1.1,79,0.00,,,0.00,WUHU216HW,2013-03-12 10:00:00,
2013-03-12 03:05:00,49.7,43.7,30.07,NE,45,0.4,1.1,80,0.00,,,0.00,WUHU216HW,2013-03-12 10:05:00,
2013-03-12 03:10:00,49.5,43.6,30.07,NE,45,0.0,0.7,80,0.00,,,0.00,WUHU216HW,2013-03-12 10:10:00,
2013-03-12 03:15:00,49.7,43.7,30.07,NE,45,0.0,0.7,80,0.00,,,0.00,WUHU216HW,2013-03-12 10:15:00,
2013-03-12 03:20:00,49.5,43.6,30.07,NE,45,0.0,0.4,80,0.00,,,0.00,WUHU216HW,2013-03-12 10:20:00,
2013-03-12 03:25:00,49.7,43.7,30.07,NE,45,0.0,0.0,80,0.00,,,0.00,WUHU216HW,2013-03-12 10:25:00,
2013-03-12 03:30:00,49.3,43.7,30.07,NE,45,0.0,0.2,81,0.00,,,0.00,WUHU216HW,2013-03-12 10:30:00,
2013-03-12 03:35:00,49.1,43.5,30.06,NE,45,0.0,0.4,81,0.00,,,0.00,WUHU216HW,2013-03-12 10:35:00,
2013-03-12 03:40:00,49.0,43.7,30.06,NE,45,0.4,0.4,82,0.00,,,0.00,WUHU216HW,2013-03-12 10:40:00,
2013-03-12 03:45:00,48.8,43.5,30.06,NE,45,0.0,0.4,82,0.00,,,0.00,WUHU216HW,2013-03-12 10:45:00,
2013-03-12 03:50:00,48.8,43.5,30.06,ENE,68,0.0,0.4,82,0.00,,,0.00,WUHU216HW,2013-03-12 10:50:00,
2013-03-12 03:55:00,49.0,43.7,30.06,ENE,68,0.0,0.4,82,0.00,,,0.00,WUHU216HW,2013-03-12 10:55:00,
2013-03-12 04:00:00,49.0,43.7,30.06,ENE,68,0.0,0.0,82,0.00,,,0.00,WUHU216HW,2013-03-12 11:00:00,
2013-03-12 04:05:00,49.1,43.8,30.06,ENE,68,0.2,0.2,82,0.00,,,0.00,WUHU216HW,2013-03-12 11:05:00,
2013-03-12 04:10:00,49.1,43.8,30.06,ENE,68,0.4,0.4,82,0.00,,,0.00,WUHU216HW,2013-03-12 11:10:00,
2013-03-12 04:15:00,49.1,43.8,30.06,North,0,0.0,0.4,82,0.00,,,0.00,WUHU216HW,2013-03-12 11:15:00,
2013-03-12 04:20:00,49.1,43.8,30.06,North,0,0.7,0.7,82,0.00,,,0.00,WUHU216HW,2013-03-12 11:20:00,
2013-03-12 04:25:00,49.0,43.7,30.06,NE,45,0.4,1.8,82,0.00,,,0.00,WUHU216HW,2013-03-12 11:25:00,
2013-03-12 04:30:00,49.0,43.7,30.06,NNE,23,0.0,1.8,82,0.00,,,0.00,WUHU216HW,2013-03-12 11:30:00,
2013-03-12 04:35:00,49.0,43.7,30.06,NNE,23,0.0,0.7,82,0.00,,,0.00,WUHU216HW,2013-03-12 11:35:00,
2013-03-12 04:40:00,49.1,43.8,30.06,NE,45,0.0,0.0,82,0.00,,,0.00,WUHU216HW,2013-03-12 11:40:00,
2013-03-12 04:45:00,49.1,43.8,30.06,NE,45,0.0,0.4,82,0.00,,,0.00,WUHU216HW,2013-03-12 11:45:00,
2013-03-12 04:50:00,49.0,43.7,30.06,ESE,113,0.7,0.7,82,0.00,,,0.00,WUHU216HW,2013-03-12 11:50:00,
2013-03-12 04:55:00,49.0,43.7,30.06,NE,45,1.1,1.1,82,0.00,,,0.00,WUHU216HW,2013-03-12 11:55:00,
2013-03-12 05:00:00,49.0,43.7,30.06,NNE,23,0.7,1.1,82,0.00,,,0.00,WUHU216HW,2013-03-12 12:00:00,
2013-03-12 05:05:00,49.0,43.7,30.07,NNE,23,0.4,1.1,82,0.00,,,0.00,WUHU216HW,2013-03-12 12:05:00,
2013-03-12 05:10:00,49.0,43.7,30.06,NNE,23,0.0,0.7,82,0.00,,,0.00,WUHU216HW,2013-03-12 12:10:00,
2013-03-12 05:15:00,49.0,43.7,30.06,NNE,23,0.0,0.4,82,0.00,,,0.00,WUHU216HW,2013-03-12 12:15:00,
2013-03-12 05:20:00,49.0,43.7,30.06,North,0,0.7,0.7,82,0.00,,,0.00,WUHU216HW,2013-03-12 12:20:00,
2013-03-12 05:25:00,48.8,43.5,30.06,North,0,0.2,0.9,82,0.00,,,0.00,WUHU216HW,2013-03-12 12:25:00,
2013-03-12 05:30:00,48.8,43.5,30.07,North,0,0.0,0.9,82,0.00,,,0.00,WUHU216HW,2013-03-12 12:30:00,
2013-03-12 05:35:00,48.6,43.3,30.07,NE,45,0.9,0.9,82,0.00,,,0.00,WUHU216HW,2013-03-12 12:35:00,
2013-03-12 05:40:00,48.6,43.3,30.07,ENE,68,0.4,1.8,82,0.00,,,0.00,WUHU216HW,2013-03-12 12:40:00,
2013-03-12 05:45:00,48.6,43.3,30.07,NE,45,0.0,1.8,82,0.00,,,0.00,WUHU216HW,2013-03-12 12:45:00,
2013-03-12 05:50:00,48.6,43.3,30.07,NE,45,0.2,0.7,82,0.00,,,0.00,WUHU216HW,2013-03-12 12:50:00,
2013-03-12 05:55:00,48.6,43.3,30.07,NE,45,0.2,0.4,82,0.00,,,0.00,WUHU216HW,2013-03-12 12:55:00,
2013-03-12 06:00:00,48.4,43.1,30.07,NE,45,0.4,0.4,82,0.00,,,0.00,WUHU216HW,2013-03-12 13:00:00,
2013-03-12 06:05:00,48.2,42.7,30.08,NE,45,0.0,0.4,81,0.00,,,0.00,WUHU216HW,2013-03-12 13:05:00,
2013-03-12 06:10:00,48.2,42.7,30.07,NE,45,0.4,0.4,81,0.00,,,0.00,WUHU216HW,2013-03-12 13:10:00,
2013-03-12 06:15:00,48.2,42.7,30.07,NE,45,0.0,0.4,81,0.00,,,0.00,WUHU216HW,2013-03-12 13:15:00,
2013-03-12 06:20:00,48.2,42.7,30.07,NE,45,0.0,0.4,81,0.00,,,0.00,WUHU216HW,2013-03-12 13:20:00,
2013-03-12 06:25:00,48.2,42.7,30.07,NE,45,0.0,0.2,81,0.00,,,0.00,WUHU216HW,2013-03-12 13:25:00,
2013-03-12 06:30:00,48.2,42.7,30.07,NE,45,0.0,0.2,81,0.00,,,0.00,WUHU216HW,2013-03-12 13:30:00,
2013-03-12 06:35:00,48.1,42.5,30.07,NE,45,0.0,0.0,81,0.00,,,0.00,WUHU216HW,2013-03-12 13:35:00,
2013-03-12 06:40:00,48.1,42.5,30.08,NE,45,0.0,0.0,81,0.00,,,0.00,WUHU216HW,2013-03-12 13:40:00,
2013-03-12 06:45:00,47.9,42.3,30.08,NE,45,0.0,0.0,81,0.00,,,0.00,WUHU216HW,2013-03-12 13:45:00,
2013-03-12 06:50:00,47.7,42.1,30.08,NE,45,0.0,0.4,81,0.00,,,0.00,WUHU216HW,2013-03-12 13:50:00,
2013-03-12 06:55:00,47.5,41.9,30.08,NE,45,0.0,0.4,81,0.00,,,0.00,WUHU216HW,2013-03-12 13:55:00,
2013-03-12 07:00:00,47.5,41.9,30.08,NE,45,0.2,0.2,81,0.00,,,0.00,WUHU216HW,2013-03-12 14:00:00,
2013-03-12 07:05:00,47.3,41.8,30.08,NE,45,0.0,0.4,81,0.00,,,0.00,WUHU216HW,2013-03-12 14:05:00,
2013-03-12 07:10:00,47.2,41.7,30.08,NE,45,0.0,0.4,81,0.00,,,0.00,WUHU216HW,2013-03-12 14:10:00,
2013-03-12 07:15:00,47.2,41.7,30.08,NE,45,0.0,0.0,81,0.00,,,0.00,WUHU216HW,2013-03-12 14:15:00,
2013-03-12 07:20:00,47.0,41.5,30.08,NE,45,0.0,0.0,81,0.00,,,0.00,WUHU216HW,2013-03-12 14:20:00,
2013-03-12 07:25:00,47.0,41.5,30.08,NE,45,0.0,0.0,81,0.00,,,0.00,WUHU216HW,2013-03-12 14:25:00,
2013-03-12 07:30:00,47.0,41.5,30.08,NE,45,0.0,0.0,81,0.00,,,0.00,WUHU216HW,2013-03-12 14:30:00,
2013-03-12 07:35:00,46.8,41.3,30.08,NE,45,0.0,0.0,81,0.00,,,0.00,WUHU216HW,2013-03-12 14:35:00,
2013-03-12 07:40:00,47.0,41.5,30.08,NE,45,0.0,0.0,81,0.00,,,0.00,WUHU216HW,2013-03-12 14:40:00,
2013-03-12 07:45:00,47.0,41.5,30.08,NE,45,0.0,0.0,81,0.00,,,0.00,WUHU216HW,2013-03-12 14:45:00,
2013-03-12 07:50:00,47.0,41.8,30.08,NE,45,0.0,0.0,82,0.00,,,0.00,WUHU216HW,2013-03-12 14:50:00,
2013-03-12 07:55:00,47.2,41.9,30.08,NE,45,0.0,0.7,82,0.00,,,0.00,WUHU216HW,2013-03-12 14:55:00,
2013-03-12 08:00:00,47.0,41.8,30.08,NE,45,0.0,0.7,82,0.00,,,0.00,WUHU216HW,2013-03-12 15:00:00,
2013-03-12 08:01:00,47.0,41.8,30.08,NE,45,0.0,0.0,82,0.00,,,0.00,WUHU216HW,2013-03-12 15:01:00,
2013-03-12 08:05:00,47.0,41.8,30.08,NE,45,0.0,0.0,82,0.00,,,0.00,WUHU216HW,2013-03-12 15:05:00,
2013-03-12 08:10:00,47.0,41.8,30.08,NE,45,0.0,0.0,82,0.00,,,0.00,WUHU216HW,2013-03-12 15:10:00,
2013-03-12 08:15:00,47.2,41.9,30.09,NE,45,0.0,0.0,82,0.00,,,0.00,WUHU216HW,2013-03-12 15:15:00,
2013-03-12 08:20:00,47.3,42.1,30.09,NE,45,0.0,0.2,82,0.00,,,0.00,WUHU216HW,2013-03-12 15:20:00,
2013-03-12 08:25:00,47.5,42.3,30.09,NE,45,0.0,0.2,82,0.00,,,0.00,WUHU216HW,2013-03-12 15:25:00,
2013-03-12 08:30:00,47.9,42.9,30.08,NNE,23,0.0,0.0,83,0.00,,,0.00,WUHU216HW,2013-03-12 15:30:00,
2013-03-12 08:35:00,48.1,43.1,30.09,NE,45,0.0,0.4,83,0.00,,,0.00,WUHU216HW,2013-03-12 15:35:00,
2013-03-12 08:40:00,48.4,43.5,30.09,North,0,0.0,0.4,83,0.00,,,0.00,WUHU216HW,2013-03-12 15:40:00,
2013-03-12 08:45:00,48.6,43.9,30.10,North,0,0.4,0.9,84,0.00,,,0.00,WUHU216HW,2013-03-12 15:45:00,
2013-03-12 08:50:00,49.1,44.5,30.10,NNE,23,0.0,0.9,84,0.00,,,0.00,WUHU216HW,2013-03-12 15:50:00,
2013-03-12 08:55:00,49.5,44.8,30.10,NNE,23,0.0,0.7,84,0.00,,,0.00,WUHU216HW,2013-03-12 15:55:00,
2013-03-12 09:00:00,50.0,45.6,30.10,NE,45,0.4,1.1,85,0.00,,,0.00,WUHU216HW,2013-03-12 16:00:00,
2013-03-12 09:05:00,50.8,46.4,30.10,NE,45,1.3,1.3,85,0.00,,,0.00,WUHU216HW,2013-03-12 16:05:00,
2013-03-12 09:10:00,51.3,46.6,30.10,ESE,113,0.0,1.3,84,0.00,,,0.00,WUHU216HW,2013-03-12 16:10:00,
2013-03-12 09:15:00,52.2,47.2,30.10,ENE,68,1.1,1.3,83,0.00,,,0.00,WUHU216HW,2013-03-12 16:15:00,
2013-03-12 09:20:00,52.9,47.6,30.11,North,0,0.7,1.8,82,0.00,,,0.00,WUHU216HW,2013-03-12 16:20:00,
2013-03-12 09:25:00,53.6,47.3,30.11,East,90,2.0,3.4,79,0.00,,,0.00,WUHU216HW,2013-03-12 16:25:00,
2013-03-12 09:30:00,54.5,47.8,30.11,East,90,0.4,3.4,78,0.00,,,0.00,WUHU216HW,2013-03-12 16:30:00,
2013-03-12 09:35:00,55.1,47.6,30.11,ENE,68,1.1,2.5,76,0.00,,,0.00,WUHU216HW,2013-03-12 16:35:00,
2013-03-12 09:40:00,55.8,47.6,30.11,NE,45,1.6,2.5,74,0.00,,,0.00,WUHU216HW,2013-03-12 16:40:00,
2013-03-12 09:45:00,56.5,48.0,30.11,ENE,68,1.3,2.0,73,0.00,,,0.00,WUHU216HW,2013-03-12 16:45:00,
2013-03-12 09:50:00,57.2,48.2,30.11,WSW,248,0.2,2.0,72,0.00,,,0.00,WUHU216HW,2013-03-12 16:50:00,
2013-03-12 09:55:00,57.4,48.4,30.11,SE,135,0.7,1.3,72,0.00,,,0.00,WUHU216HW,2013-03-12 16:55:00,
2013-03-12 10:00:00,58.0,48.6,30.11,SW,225,1.1,1.1,71,0.00,,,0.00,WUHU216HW,2013-03-12 17:00:00,
2013-03-12 10:05:00,58.3,49.0,30.12,WSW,248,0.2,1.1,71,0.00,,,0.00,WUHU216HW,2013-03-12 17:05:00,
2013-03-12 10:10:00,58.9,49.1,30.12,NE,45,1.8,1.8,70,0.00,,,0.00,WUHU216HW,2013-03-12 17:10:00,
2013-03-12 10:15:00,59.4,49.2,30.11,WSW,248,0.2,1.8,69,0.00,,,0.00,WUHU216HW,2013-03-12 17:15:00,
2013-03-12 10:20:00,60.1,50.0,30.11,NW,315,1.3,1.8,69,0.00,,,0.00,WUHU216HW,2013-03-12 17:20:00,
2013-03-12 10:25:00,60.5,49.2,30.11,North,0,0.4,2.2,66,0.00,,,0.00,WUHU216HW,2013-03-12 17:25:00,
2013-03-12 10:30:00,61.2,50.2,30.11,West,270,0.7,2.2,67,0.00,,,0.00,WUHU216HW,2013-03-12 17:30:00,
2013-03-12 10:35:00,61.7,50.7,30.10,SW,225,2.2,2.5,67,0.00,,,0.00,WUHU216HW,2013-03-12 17:35:00,
2013-03-12 10:40:00,62.1,50.6,30.10,SW,225,1.6,2.7,66,0.00,,,0.00,WUHU216HW,2013-03-12 17:40:00,
2013-03-12 10:45:00,62.5,51.0,30.11,WNW,293,2.9,2.9,66,0.00,,,0.00,WUHU216HW,2013-03-12 17:45:00,
2013-03-12 10:50:00,63.0,51.0,30.10,West,270,2.2,2.9,65,0.00,,,0.00,WUHU216HW,2013-03-12 17:50:00,
2013-03-12 10:55:00,63.4,50.5,30.11,North,0,0.4,3.4,63,0.00,,,0.00,WUHU216HW,2013-03-12 17:55:00,
2013-03-12 11:00:00,63.7,50.9,30.10,ESE,113,0.4,3.4,63,0.00,,,0.00,WUHU216HW,2013-03-12 18:00:00,
2013-03-12 11:05:00,64.1,51.2,30.10,SW,225,1.8,4.7,63,0.00,,,0.00,WUHU216HW,2013-03-12 18:05:00,
2013-03-12 11:10:00,64.3,51.4,30.11,NW,315,1.1,4.7,63,0.00,,,0.00,WUHU216HW,2013-03-12 18:10:00,
2013-03-12 11:15:00,64.8,51.5,30.11,WNW,293,3.4,3.6,62,0.00,,,0.00,WUHU216HW,2013-03-12 18:15:00,
2013-03-12 11:20:00,65.2,51.4,30.11,West,270,2.5,3.6,61,0.00,,,0.00,WUHU216HW,2013-03-12 18:20:00,
2013-03-12 11:25:00,65.3,51.1,30.11,WNW,293,2.7,4.0,60,0.00,,,0.00,WUHU216HW,2013-03-12 18:25:00,
2013-03-12 11:30:00,65.7,51.5,30.10,West,270,2.2,4.0,60,0.00,,,0.00,WUHU216HW,2013-03-12 18:30:00,
2013-03-12 11:35:00,65.9,51.7,30.10,SW,225,3.4,3.6,60,0.00,,,0.00,WUHU216HW,2013-03-12 18:35:00,
2013-03-12 11:40:00,66.1,51.8,30.10,SSE,158,1.1,3.6,60,0.00,,,0.00,WUHU216HW,2013-03-12 18:40:00,
2013-03-12 11:45:00,66.4,51.7,30.10,West,270,3.6,3.8,59,0.00,,,0.00,WUHU216HW,2013-03-12 18:45:00,
2013-03-12 11:50:00,66.6,51.4,30.10,NW,315,0.9,3.8,58,0.00,,,0.00,WUHU216HW,2013-03-12 18:50:00,
2013-03-12 11:55:00,67.0,51.7,30.10,NW,315,1.1,3.6,58,0.00,,,0.00,WUHU216HW,2013-03-12 18:55:00,
2013-03-12 12:00:00,67.3,52.0,30.09,WSW,248,1.6,3.4,58,0.00,,,0.00,WUHU216HW,2013-03-12 19:00:00,
2013-03-12 12:05:00,67.3,52.0,30.09,NNW,338,1.8,3.4,58,0.00,,,0.00,WUHU216HW,2013-03-12 19:05:00,
2013-03-12 12:10:00,67.9,52.0,30.09,NNW,338,1.3,4.0,57,0.00,,,0.00,WUHU216HW,2013-03-12 19:10:00,
2013-03-12 12:15:00,68.0,51.7,30.10,WNW,293,4.3,4.7,56,0.00,,,0.00,WUHU216HW,2013-03-12 19:15:00,
2013-03-12 12:20:00,68.4,52.0,30.09,WNW,293,2.9,4.7,56,0.00,,,0.00,WUHU216HW,2013-03-12 19:20:00,
2013-03-12 12:25:00,68.4,51.6,30.10,WNW,293,1.1,5.8,55,0.00,,,0.00,WUHU216HW,2013-03-12 19:25:00,
2013-03-12 12:30:00,68.8,51.4,30.10,NW,315,1.8,5.8,54,0.00,,,0.00,WUHU216HW,2013-03-12 19:30:00,
2013-03-12 12:35:00,68.9,52.0,30.09,WSW,248,1.8,5.4,55,0.00,,,0.00,WUHU216HW,2013-03-12 19:35:00,
2013-03-12 12:40:00,69.1,51.8,30.10,WSW,248,2.5,7.2,54,0.00,,,0.00,WUHU216HW,2013-03-12 19:40:00,
2013-03-12 12:45:00,69.3,52.4,30.09,West,270,3.4,7.2,55,0.00,,,0.00,WUHU216HW,2013-03-12 19:45:00,
2013-03-12 12:50:00,69.8,52.9,30.09,West,270,3.6,3.6,55,0.00,,,0.00,WUHU216HW,2013-03-12 19:50:00,
2013-03-12 12:55:00,69.8,51.9,30.09,NNW,338,0.4,4.5,53,0.00,,,0.00,WUHU216HW,2013-03-12 19:55:00,
2013-03-12 13:00:00,70.2,52.7,30.09,WNW,293,1.6,4.5,54,0.00,,,0.00,WUHU216HW,2013-03-12 20:00:00,
2013-03-12 13:05:00,70.2,52.7,30.09,NW,315,3.6,4.7,54,0.00,,,0.00,WUHU216HW,2013-03-12 20:05:00,
2013-03-12 13:10:00,70.4,52.9,30.09,West,270,1.8,4.7,54,0.00,,,0.00,WUHU216HW,2013-03-12 20:10:00,
2013-03-12 13:15:00,70.7,52.8,30.09,West,270,4.7,6.0,53,0.00,,,0.00,WUHU216HW,2013-03-12 20:15:00,
2013-03-12 13:20:00,70.7,51.8,30.08,North,0,2.0,6.0,51,0.00,,,0.00,WUHU216HW,2013-03-12 20:20:00,
2013-03-12 13:25:00,70.9,52.4,30.08,NNW,338,3.4,4.3,52,0.00,,,0.00,WUHU216HW,2013-03-12 20:25:00,
2013-03-12 13:30:00,70.9,51.8,30.07,NW,315,2.7,4.0,51,0.00,,,0.00,WUHU216HW,2013-03-12 20:30:00,
2013-03-12 13:35:00,70.9,50.8,30.07,North,0,1.8,4.0,49,0.00,,,0.00,WUHU216HW,2013-03-12 20:35:00,
2013-03-12 13:40:00,71.1,51.6,30.07,WSW,248,2.2,2.7,50,0.00,,,0.00,WUHU216HW,2013-03-12 20:40:00,
2013-03-12 13:45:00,71.3,51.7,30.07,North,0,0.9,4.0,50,0.00,,,0.00,WUHU216HW,2013-03-12 20:45:00,
2013-03-12 13:50:00,71.6,52.0,30.06,WSW,248,1.1,4.0,50,0.00,,,0.00,WUHU216HW,2013-03-12 20:50:00,
2013-03-12 13:55:00,71.8,49.8,30.06,North,0,2.9,4.3,46,0.00,,,0.00,WUHU216HW,2013-03-12 20:55:00,
2013-03-12 14:00:00,71.8,51.6,30.06,NNW,338,0.0,4.3,49,0.00,,,0.00,WUHU216HW,2013-03-12 21:00:00,
2013-03-12 14:05:00,72.0,51.8,30.06,WNW,293,1.3,4.0,49,0.00,,,0.00,WUHU216HW,2013-03-12 21:05:00,
2013-03-12 14:10:00,72.0,51.1,30.05,NNE,23,2.0,2.9,48,0.00,,,0.00,WUHU216HW,2013-03-12 21:10:00,
2013-03-12 14:15:00,72.4,52.1,30.05,West,270,3.4,5.6,49,0.00,,,0.00,WUHU216HW,2013-03-12 21:15:00,
2013-03-12 14:20:00,72.5,52.2,30.04,WNW,293,4.7,6.0,49,0.00,,,0.00,WUHU216HW,2013-03-12 21:20:00,
2013-03-12 14:25:00,72.7,52.4,30.04,SW,225,0.4,6.0,49,0.00,,,0.00,WUHU216HW,2013-03-12 21:25:00,
2013-03-12 14:30:00,72.7,52.4,30.04,West,270,4.0,4.9,49,0.00,,,0.00,WUHU216HW,2013-03-12 21:30:00,
2013-03-12 14:35:00,72.9,52.6,30.04,NW,315,1.8,4.9,49,0.00,,,0.00,WUHU216HW,2013-03-12 21:35:00,
2013-03-12 14:40:00,73.1,52.8,30.04,SW,225,2.5,4.0,49,0.00,,,0.00,WUHU216HW,2013-03-12 21:40:00,
2013-03-12 14:45:00,72.9,52.6,30.04,NW,315,0.9,4.0,49,0.00,,,0.00,WUHU216HW,2013-03-12 21:45:00,
2013-03-12 14:50:00,73.1,52.1,30.04,WNW,293,1.6,4.7,48,0.00,,,0.00,WUHU216HW,2013-03-12 21:50:00,
2013-03-12 14:55:00,73.1,52.1,30.04,West,270,2.5,4.7,48,0.00,,,0.00,WUHU216HW,2013-03-12 21:55:00,
2013-03-12 15:00:00,73.1,52.8,30.04,NW,315,2.5,4.0,49,0.00,,,0.00,WUHU216HW,2013-03-12 22:00:00,
2013-03-12 15:05:00,73.1,52.1,30.04,WNW,293,1.8,4.7,48,0.00,,,0.00,WUHU216HW,2013-03-12 22:05:00,
2013-03-12 15:10:00,72.9,51.9,30.04,WNW,293,2.0,4.7,48,0.00,,,0.00,WUHU216HW,2013-03-12 22:10:00,
2013-03-12 15:15:00,72.7,51.2,30.04,NW,315,0.9,4.5,47,0.00,,,0.00,WUHU216HW,2013-03-12 22:15:00,
2013-03-12 15:20:00,72.7,51.9,30.04,NNW,338,0.9,3.1,48,0.00,,,0.00,WUHU216HW,2013-03-12 22:20:00,
2013-03-12 15:25:00,72.7,52.4,30.03,West,270,2.2,3.4,49,0.00,,,0.00,WUHU216HW,2013-03-12 22:25:00,
2013-03-12 15:30:00,72.7,51.9,30.04,West,270,3.1,4.5,48,0.00,,,0.00,WUHU216HW,2013-03-12 22:30:00,
2013-03-12 15:35:00,72.7,52.4,30.04,SW,225,1.3,4.5,49,0.00,,,0.00,WUHU216HW,2013-03-12 22:35:00,
2013-03-12 15:40:00,72.7,51.9,30.04,WNW,293,1.3,5.1,48,0.00,,,0.00,WUHU216HW,2013-03-12 22:40:00,
2013-03-12 15:45:00,72.7,51.9,30.04,NW,315,3.6,5.1,48,0.00,,,0.00,WUHU216HW,2013-03-12 22:45:00,
2013-03-12 15:50:00,72.7,51.9,30.04,WNW,293,3.4,4.0,48,0.00,,,0.00,WUHU216HW,2013-03-12 22:50:00,
2013-03-12 15:55:00,72.7,52.4,30.04,NW,315,2.0,5.4,49,0.00,,,0.00,WUHU216HW,2013-03-12 22:55:00,
2013-03-12 16:00:00,72.7,51.9,30.04,North,0,0.9,5.4,48,0.00,,,0.00,WUHU216HW,2013-03-12 23:00:00,
2013-03-12 16:05:00,72.5,51.7,30.03,West,270,1.6,5.4,48,0.00,,,0.00,WUHU216HW,2013-03-12 23:05:00,
2013-03-12 16:10:00,72.7,52.4,30.03,WSW,248,1.6,3.4,49,0.00,,,0.00,WUHU216HW,2013-03-12 23:10:00,
2013-03-12 16:15:00,72.7,51.9,30.03,NNW,338,0.9,3.1,48,0.00,,,0.00,WUHU216HW,2013-03-12 23:15:00,
2013-03-12 16:20:00,72.7,51.2,30.03,NNW,338,1.1,3.4,47,0.00,,,0.00,WUHU216HW,2013-03-12 23:20:00,
2013-03-12 16:25:00,72.7,51.9,30.03,NNW,338,1.8,3.4,48,0.00,,,0.00,WUHU216HW,2013-03-12 23:25:00,
2013-03-12 16:30:00,72.7,51.9,30.03,WNW,293,4.3,5.4,48,0.00,,,0.00,WUHU216HW,2013-03-12 23:30:00,
2013-03-12 16:35:00,72.7,51.9,30.03,WNW,293,3.6,5.4,48,0.00,,,0.00,WUHU216HW,2013-03-12 23:35:00,
2013-03-12 16:40:00,72.7,51.9,30.03,West,270,4.7,5.1,48,0.00,,,0.00,WUHU216HW,2013-03-12 23:40:00,
2013-03-12 16:45:00,72.7,51.9,30.03,NW,315,2.5,5.4,48,0.00,,,0.00,WUHU216HW,2013-03-12 23:45:00,
2013-03-12 16:50:00,72.7,51.9,30.03,NNW,338,3.4,5.4,48,0.00,,,0.00,WUHU216HW,2013-03-12 23:50:00,
2013-03-12 16:55:00,72.9,51.9,30.03,NNW,338,1.1,4.3,48,0.00,,,0.00,WUHU216HW,2013-03-12 23:55:00,
2013-03-12 17:00:00,72.9,51.9,30.03,NW,315,3.1,3.6,48,0.00,,,0.00,WUHU216HW,2013-03-13 00:00:00,
2013-03-12 17:05:00,72.9,51.9,30.03,WSW,248,2.2,3.6,48,0.00,,,0.00,WUHU216HW,2013-03-13 00:05:00,
2013-03-12 17:10:00,72.9,51.4,30.03,West,270,2.9,3.6,47,0.00,,,0.00,WUHU216HW,2013-03-13 00:10:00,
2013-03-12 17:15:00,72.9,51.4,30.03,West,270,1.1,3.8,47,0.00,,,0.00,WUHU216HW,2013-03-13 00:15:00,
2013-03-12 17:20:00,73.1,51.6,30.03,West,270,1.3,3.8,47,0.00,,,0.00,WUHU216HW,2013-03-13 00:20:00,
2013-03-12 17:25:00,73.3,51.1,30.03,NNW,338,2.0,3.6,46,0.00,,,0.00,WUHU216HW,2013-03-13 00:25:00,
2013-03-12 17:30:00,73.4,51.3,30.03,NNW,338,1.1,2.0,46,0.00,,,0.00,WUHU216HW,2013-03-13 00:30:00,
2013-03-12 17:35:00,73.6,51.5,30.03,NNW,338,0.4,2.0,46,0.00,,,0.00,WUHU216HW,2013-03-13 00:35:00,
2013-03-12 17:40:00,73.8,51.6,30.03,NNW,338,0.2,1.3,46,0.00,,,0.00,WUHU216HW,2013-03-13 00:40:00,
2013-03-12 17:45:00,73.8,51.6,30.03,NNW,338,2.0,3.8,46,0.00,,,0.00,WUHU216HW,2013-03-13 00:45:00,
2013-03-12 17:50:00,73.8,51.6,30.03,North,0,1.3,3.8,46,0.00,,,0.00,WUHU216HW,2013-03-13 00:50:00,
2013-03-12 17:55:00,73.6,51.5,30.03,NNW,338,1.1,2.7,46,0.00,,,0.00,WUHU216HW,2013-03-13 00:55:00,
2013-03-12 18:00:00,73.4,51.3,30.03,West,270,1.8,2.0,46,0.00,,,0.00,WUHU216HW,2013-03-13 01:00:00,
2013-03-12 18:05:00,73.3,51.1,30.03,WNW,293,2.7,2.7,46,0.00,,,0.00,WUHU216HW,2013-03-13 01:05:00,
2013-03-12 18:10:00,73.1,50.9,30.03,West,270,0.4,2.7,46,0.00,,,0.00,WUHU216HW,2013-03-13 01:10:00,
2013-03-12 18:15:00,72.7,51.2,30.03,West,270,0.4,2.7,47,0.00,,,0.00,WUHU216HW,2013-03-13 01:15:00,
2013-03-12 18:20:00,72.5,51.0,30.03,WNW,293,0.9,1.1,47,0.00,,,0.00,WUHU216HW,2013-03-13 01:20:00,
2013-03-12 18:25:00,72.4,51.5,30.03,WNW,293,0.0,1.1,48,0.00,,,0.00,WUHU216HW,2013-03-13 01:25:00,
2013-03-12 18:30:00,72.4,51.5,30.03,WNW,293,0.4,1.1,48,0.00,,,0.00,WUHU216HW,2013-03-13 01:30:00,
2013-03-12 18:35:00,72.2,51.9,30.03,North,0,0.7,1.1,49,0.00,,,0.00,WUHU216HW,2013-03-13 01:35:00,
2013-03-12 18:40:00,72.0,51.8,30.03,North,0,0.0,0.9,49,0.00,,,0.00,WUHU216HW,2013-03-13 01:40:00,
2013-03-12 18:45:00,71.8,51.6,30.03,North,0,0.0,0.7,49,0.00,,,0.00,WUHU216HW,2013-03-13 01:45:00,
2013-03-12 18:50:00,71.5,51.3,30.03,North,0,0.0,0.0,49,0.00,,,0.00,WUHU216HW,2013-03-13 01:50:00,
2013-03-12 18:55:00,71.1,51.6,30.03,North,0,0.0,0.0,50,0.00,,,0.00,WUHU216HW,2013-03-13 01:55:00,
2013-03-12 19:00:00,70.6,51.0,30.03,North,0,0.0,0.0,50,0.00,,,0.00,WUHU216HW,2013-03-13 02:00:00,
2013-03-12 19:05:00,70.2,51.2,30.03,North,0,0.0,0.0,51,0.00,,,0.00,WUHU216HW,2013-03-13 02:05:00,
2013-03-12 19:10:00,69.5,50.6,30.04,North,0,0.0,0.0,51,0.00,,,0.00,WUHU216HW,2013-03-13 02:10:00,
2013-03-12 19:15:00,69.1,50.8,30.04,North,0,0.0,0.0,52,0.00,,,0.00,WUHU216HW,2013-03-13 02:15:00,
2013-03-12 19:20:00,68.8,50.4,30.04,North,0,0.0,0.0,52,0.00,,,0.00,WUHU216HW,2013-03-13 02:20:00,
2013-03-12 19:25:00,68.4,50.6,30.03,North,0,0.0,0.2,53,0.00,,,0.00,WUHU216HW,2013-03-13 02:25:00,
2013-03-12 19:30:00,67.9,50.0,30.04,North,0,0.0,0.2,53,0.00,,,0.00,WUHU216HW,2013-03-13 02:30:00,
2013-03-12 19:35:00,67.7,50.4,30.04,North,0,0.0,0.0,54,0.00,,,0.00,WUHU216HW,2013-03-13 02:35:00,
2013-03-12 19:40:00,67.3,50.6,30.04,North,0,0.0,0.0,55,0.00,,,0.00,WUHU216HW,2013-03-13 02:40:00,
2013-03-12 19:45:00,66.8,50.0,30.04,North,0,0.0,0.0,55,0.00,,,0.00,WUHU216HW,2013-03-13 02:45:00,
2013-03-12 19:50:00,66.4,50.2,30.04,North,0,0.0,0.0,56,0.00,,,0.00,WUHU216HW,2013-03-13 02:50:00,
2013-03-12 19:55:00,66.2,50.6,30.04,North,0,0.0,0.0,57,0.00,,,0.00,WUHU216HW,2013-03-13 02:55:00,
2013-03-12 20:00:00,65.9,50.2,30.05,North,0,0.0,0.0,57,0.00,,,0.00,WUHU216HW,2013-03-13 03:00:00,
2013-03-12 20:05:00,65.5,50.3,30.05,North,0,0.0,0.0,58,0.00,,,0.00,WUHU216HW,2013-03-13 03:05:00,
2013-03-12 20:10:00,65.2,50.0,30.05,North,0,0.0,0.0,58,0.00,,,0.00,WUHU216HW,2013-03-13 03:10:00,
2013-03-12 20:15:00,64.8,50.1,30.05,North,0,0.0,0.0,59,0.00,,,0.00,WUHU216HW,2013-03-13 03:15:00,
2013-03-12 20:20:00,64.4,50.2,30.05,North,0,0.0,0.0,60,0.00,,,0.00,WUHU216HW,2013-03-13 03:20:00,
2013-03-12 20:25:00,64.1,49.9,30.05,North,0,0.0,0.0,60,0.00,,,0.00,WUHU216HW,2013-03-13 03:25:00,
2013-03-12 20:30:00,63.9,50.1,30.05,North,0,0.0,0.0,61,0.00,,,0.00,WUHU216HW,2013-03-13 03:30:00,
2013-03-12 20:35:00,63.7,50.1,30.05,North,0,0.0,0.0,61,0.00,,,0.00,WUHU216HW,2013-03-13 03:35:00,
2013-03-12 20:40:00,63.4,49.7,30.05,North,0,0.0,0.0,61,0.00,,,0.00,WUHU216HW,2013-03-13 03:40:00,
2013-03-12 20:45:00,63.0,49.8,30.05,North,0,0.0,0.0,62,0.00,,,0.00,WUHU216HW,2013-03-13 03:45:00,
2013-03-12 20:50:00,62.6,49.9,30.05,North,0,0.0,0.0,63,0.00,,,0.00,WUHU216HW,2013-03-13 03:50:00,
2013-03-12 20:55:00,62.5,50.1,30.06,North,0,0.0,0.0,64,0.00,,,0.00,WUHU216HW,2013-03-13 03:55:00,
2013-03-12 21:00:00,62.3,50.0,30.06,North,0,0.0,0.0,64,0.00,,,0.00,WUHU216HW,2013-03-13 04:00:00,
2013-03-12 21:05:00,61.9,50.1,30.06,North,0,0.0,0.0,65,0.00,,,0.00,WUHU216HW,2013-03-13 04:05:00,
2013-03-12 21:10:00,61.6,49.7,30.06,North,0,0.0,0.0,65,0.00,,,0.00,WUHU216HW,2013-03-13 04:10:00,
2013-03-12 21:15:00,61.4,50.4,30.06,North,0,0.0,0.0,67,0.00,,,0.00,WUHU216HW,2013-03-13 04:15:00,
2013-03-12 21:20:00,60.8,49.5,30.06,North,0,0.0,0.0,66,0.00,,,0.00,WUHU216HW,2013-03-13 04:20:00,
2013-03-12 21:25:00,60.8,49.5,30.06,North,0,0.0,0.0,66,0.00,,,0.00,WUHU216HW,2013-03-13 04:25:00,
2013-03-12 21:30:00,60.5,50.0,30.06,North,0,0.0,0.0,68,0.00,,,0.00,WUHU216HW,2013-03-13 04:30:00,
2013-03-12 21:35:00,59.9,49.8,30.07,North,0,0.0,0.0,69,0.00,,,0.00,WUHU216HW,2013-03-13 04:35:00,
2013-03-12 21:40:00,59.6,49.4,30.07,North,0,0.0,0.0,69,0.00,,,0.00,WUHU216HW,2013-03-13 04:40:00,
2013-03-12 21:45:00,59.2,49.9,30.07,North,0,0.0,0.0,71,0.00,,,0.00,WUHU216HW,2013-03-13 04:45:00,
2013-03-12 21:50:00,58.9,49.9,30.07,North,0,0.4,0.7,72,0.00,,,0.00,WUHU216HW,2013-03-13 04:50:00,
2013-03-12 21:55:00,58.7,50.0,30.07,North,0,0.0,0.7,73,0.00,,,0.00,WUHU216HW,2013-03-13 04:55:00,
2013-03-12 22:00:00,58.5,49.9,30.07,North,0,0.0,0.4,73,0.00,,,0.00,WUHU216HW,2013-03-13 05:00:00,
2013-03-12 22:05:00,58.3,49.7,30.07,North,0,0.0,0.2,73,0.00,,,0.00,WUHU216HW,2013-03-13 05:05:00,
2013-03-12 22:10:00,58.0,49.7,30.07,North,0,0.0,0.2,74,0.00,,,0.00,WUHU216HW,2013-03-13 05:10:00,
2013-03-12 22:15:00,57.8,49.5,30.07,North,0,0.0,0.0,74,0.00,,,0.00,WUHU216HW,2013-03-13 05:15:00,
2013-03-12 22:20:00,57.6,49.3,30.07,North,0,0.0,0.0,74,0.00,,,0.00,WUHU216HW,2013-03-13 05:20:00,
2013-03-12 22:25:00,57.8,49.1,30.07,North,0,0.0,0.0,73,0.00,,,0.00,WUHU216HW,2013-03-13 05:25:00,
2013-03-12 22:30:00,57.8,49.1,30.08,North,0,0.0,0.0,73,0.00,,,0.00,WUHU216HW,2013-03-13 05:30:00,
2013-03-12 22:35:00,57.8,49.1,30.08,North,0,0.0,0.0,73,0.00,,,0.00,WUHU216HW,2013-03-13 05:35:00,
2013-03-12 22:40:00,57.8,49.1,30.08,North,0,0.0,0.0,73,0.00,,,0.00,WUHU216HW,2013-03-13 05:40:00,
2013-03-12 22:45:00,57.6,48.6,30.08,North,0,0.2,0.2,72,0.00,,,0.00,WUHU216HW,2013-03-13 05:45:00,
2013-03-12 22:50:00,57.6,48.6,30.08,North,0,0.4,0.4,72,0.00,,,0.00,WUHU216HW,2013-03-13 05:50:00,
2013-03-12 22:55:00,57.2,48.6,30.08,North,0,0.0,0.4,73,0.00,,,0.00,WUHU216HW,2013-03-13 05:55:00,
2013-03-12 23:00:00,56.9,48.2,30.08,North,0,0.0,0.4,73,0.00,,,0.00,WUHU216HW,2013-03-13 06:00:00,
2013-03-12 23:05:00,56.5,48.2,30.08,North,0,0.0,0.4,74,0.00,,,0.00,WUHU216HW,2013-03-13 06:05:00,
2013-03-12 23:10:00,56.5,48.2,30.08,North,0,0.0,0.4,74,0.00,,,0.00,WUHU216HW,2013-03-13 06:10:00,
2013-03-12 23:15:00,56.5,48.2,30.08,North,0,0.4,0.4,74,0.00,,,0.00,WUHU216HW,2013-03-13 06:15:00,
2013-03-12 23:20:00,56.3,48.2,30.08,North,0,0.0,0.7,74,0.00,,,0.00,WUHU216HW,2013-03-13 06:20:00,
2013-03-12 23:25:00,56.2,48.0,30.08,North,0,0.0,0.7,74,0.00,,,0.00,WUHU216HW,2013-03-13 06:25:00,
2013-03-12 23:30:00,56.3,48.2,30.08,North,0,0.0,0.0,74,0.00,,,0.00,WUHU216HW,2013-03-13 06:30:00,
2013-03-12 23:35:00,56.2,48.3,30.08,North,0,0.0,0.4,75,0.00,,,0.00,WUHU216HW,2013-03-13 06:35:00,
2013-03-12 23:40:00,56.2,48.3,30.08,North,0,0.0,0.4,75,0.00,,,0.00,WUHU216HW,2013-03-13 06:40:00,
2013-03-12 23:45:00,56.0,47.8,30.08,North,0,0.0,0.0,74,0.00,,,0.00,WUHU216HW,2013-03-13 06:45:00,
2013-03-12 23:50:00,56.0,47.8,30.07,North,0,0.0,0.0,74,0.00,,,0.00,WUHU216HW,2013-03-13 06:50:00,
2013-03-12 23:55:00,56.0,47.8,30.07,North,0,0.0,0.0,74,0.00,,,0.00,WUHU216HW,2013-03-13 06:55:00,